Rechercher aéroport 
image banner adimage banner ad
image banner ad

SVHD - Corporacion Venezolana De Television

Situé à El Recreo, Venezuela

ICAO - SVHD, IATA -

Données fournies par Airmate  

Information générale

Coordonnées: N10°30'47" W66°52'52"
Élévation : 264 feet MSL.
 
Voir autres Aéroports à Zulia

Données opérationnelles

Accessible au public
Heure actuelle UTC:
Heure actuelle locale:
METAR: SVFM 290002Z AUTO 00000KT NCD 25/18 Q1012
Voir NOTAMs / SUP AIP / TFR affectant cet aéroport [VIEW]
Fréquences de communication: [VIEW]

Pistes:

Identifiant RWYQFULongueur (ft)Largeur (ft)SurfaceLDA (ft)
12118°308449ASP
30298°308449ASP

Coordonnées de l'aéroport

Adresse: El Recreo Venezuela

Vue satellite de SVHD